Time;durP1;ratioP1;P1;durP2;ratioP2;P2;SDS_P1;SDS_P2;PMS_P1;PMS_P2;Temp;Humidity;BMP_temperature;BMP_pressure;BME280_temperature;BME280_humidity;BME280_pressure;Samples;Min_cycle;Max_cycle;Signal;HPM_P1;HPM_P2
2023/05/03 06:23:56;;;;;;;4.30;2.77;;;;;;;;;;5027348;28;20469;-82
2023/05/03 06:26:22;;;;;;;4.03;2.23;;;;;;;;;;5033786;28;20477;-81
2023/05/03 06:28:49;;;;;;;6.00;4.37;;;;;;;;;;5034689;28;20475;-82
2023/05/03 06:31:15;;;;;;;5.50;2.10;;;;;;;;;;5034784;28;20405;-82
2023/05/03 06:33:41;;;;;;;4.63;2.27;;;;;;;;;;5034284;28;20419;-84
2023/05/03 06:36:08;;;;;;;2.87;2.50;;;;;;;;;;5034542;28;20926;-83
2023/05/03 06:38:34;;;;;;;3.57;2.27;;;;;;;;;;5034500;28;20414;-80
2023/05/03 06:41:00;;;;;;;4.00;2.20;;;;;;;;;;4982156;28;20974;-80
2023/05/03 06:43:25;;;;;;;4.97;1.93;;;;;;;;;;5028031;28;20431;-81
2023/05/03 06:45:55;;;;;;;5.07;2.00;;;;;;;;;;5040613;28;20410;-81
2023/05/03 06:48:21;;;;;;;4.60;2.20;;;;;;;;;;5054132;28;20461;-82
2023/05/03 06:50:47;;;;;;;3.60;1.70;;;;;;;;;;5053881;28;20410;-80
2023/05/03 06:53:13;;;;;;;3.43;1.47;;;;;;;;;;5054237;28;20761;-82
2023/05/03 06:55:38;;;;;;;4.00;1.13;;;;;;;;;;5054204;28;20416;-81
2023/05/03 06:58:08;;;;;;;4.00;1.27;;;;;;;;;;5054161;28;20175;-81
2023/05/03 07:00:35;;;;;;;3.50;1.03;;;;;;;;;;5054097;28;20169;-81
2023/05/03 07:03:01;;;;;;;3.10;0.90;;;;;;;;;;5053952;28;20752;-80
2023/05/03 07:05:26;;;;;;;3.83;1.13;;;;;;;;;;5053638;28;20402;-79
2023/05/03 07:07:52;;;;;;;5.87;1.87;;;;;;;;;;5053806;28;20454;-84
2023/05/03 07:10:18;;;;;;;6.07;1.90;;;;;;;;;;5053935;28;20586;-82
2023/05/03 07:12:44;;;;;;;4.27;2.40;;;;;;;;;;5053393;28;20898;-83
2023/05/03 07:15:13;;;;;;;3.87;1.20;;;;;;;;;;5047911;28;20434;-81
2023/05/03 07:17:39;;;;;;;3.50;2.47;;;;;;;;;;5035049;28;20175;-81
2023/05/03 07:20:06;;;;;;;5.87;2.00;;;;;;;;;;5037129;28;20919;-84
2023/05/03 07:22:31;;;;;;;5.13;1.70;;;;;;;;;;5015952;28;20417;-83
2023/05/03 07:24:58;;;;;;;3.57;1.57;;;;;;;;;;5033451;28;20475;-83
2023/05/03 07:27:25;;;;;;;7.27;1.80;;;;;;;;;;5041261;28;20425;-83
2023/05/03 07:29:51;;;;;;;3.63;0.50;;;;;;;;;;5025268;28;20467;-77
2023/05/03 07:32:17;;;;;;;2.73;0.73;;;;;;;;;;5036158;28;20435;-78
2023/05/03 07:34:43;;;;;;;2.90;0.50;;;;;;;;;;5033220;28;20413;-77
2023/05/03 07:37:08;;;;;;;2.80;1.17;;;;;;;;;;5033534;28;20405;-80
2023/05/03 07:39:35;;;;;;;3.33;0.60;;;;;;;;;;5033509;28;20401;-79
2023/05/03 07:42:01;;;;;;;0.70;0.57;;;;;;;;;;5033512;28;20174;-77
2023/05/03 07:44:27;;;;;;;1.50;0.30;;;;;;;;;;5033369;28;20412;-77
2023/05/03 07:46:53;;;;;;;1.37;0.30;;;;;;;;;;5033474;28;20188;-79
2023/05/03 07:49:18;;;;;;;1.40;0.50;;;;;;;;;;5032815;28;20241;-81
2023/05/03 07:51:47;;;;;;;1.50;0.37;;;;;;;;;;5033272;28;20472;-78
2023/05/03 07:54:13;;;;;;;1.53;0.30;;;;;;;;;;5033240;28;20421;-78
2023/05/03 07:56:39;;;;;;;2.07;0.50;;;;;;;;;;5033117;28;20909;-81
2023/05/03 07:59:05;;;;;;;3.43;0.53;;;;;;;;;;5033121;28;20416;-78
2023/05/03 08:01:31;;;;;;;1.50;0.47;;;;;;;;;;5033135;28;20183;-77
2023/05/03 08:03:57;;;;;;;3.70;0.40;;;;;;;;;;5032770;28;20645;-79
2023/05/03 08:06:23;;;;;;;4.17;0.50;;;;;;;;;;5033146;28;20459;-79
2023/05/03 08:08:49;;;;;;;2.10;0.30;;;;;;;;;;5032817;28;20475;-80
2023/05/03 08:11:15;;;;;;;2.40;0.40;;;;;;;;;;5033074;28;20402;-76
2023/05/03 08:13:41;;;;;;;3.00;0.53;;;;;;;;;;5032888;28;20417;-77
2023/05/03 08:16:07;;;;;;;1.30;0.30;;;;;;;;;;5032929;28;20493;-77
2023/05/03 08:18:33;;;;;;;1.73;0.20;;;;;;;;;;5032428;28;20246;-76
2023/05/03 08:20:59;;;;;;;2.93;0.50;;;;;;;;;;5032932;28;20434;-77
2023/05/03 08:23:25;;;;;;;0.97;0.20;;;;;;;;;;5032268;28;20570;-77
2023/05/03 08:25:51;;;;;;;1.70;0.50;;;;;;;;;;5014848;28;20502;-76
2023/05/03 08:28:17;;;;;;;2.53;0.50;;;;;;;;;;5014865;28;20470;-75
2023/05/03 08:30:43;;;;;;;2.10;0.50;;;;;;;;;;5011241;28;21033;-77
2023/05/03 08:33:09;;;;;;;4.23;0.60;;;;;;;;;;5013512;28;20444;-76
2023/05/03 08:35:35;;;;;;;5.70;0.30;;;;;;;;;;5032730;28;20442;-80
2023/05/03 08:38:03;;;;;;;1.57;0.53;;;;;;;;;;5032812;28;20418;-79
2023/05/03 08:40:32;;;;;;;2.40;0.43;;;;;;;;;;5032747;28;20498;-80
2023/05/03 08:42:59;;;;;;;1.90;0.40;;;;;;;;;;5032618;28;20545;-80
2023/05/03 08:45:25;;;;;;;1.93;0.50;;;;;;;;;;5032720;28;20447;-80
2023/05/03 08:47:54;;;;;;;4.10;0.30;;;;;;;;;;5014826;28;20557;-81
2023/05/03 08:50:20;;;;;;;3.17;0.40;;;;;;;;;;5014640;28;20756;-77
2023/05/03 08:52:46;;;;;;;1.43;0.93;;;;;;;;;;5032560;28;20444;-80
2023/05/03 08:55:12;;;;;;;2.23;0.50;;;;;;;;;;5032501;28;20421;-84
2023/05/03 08:57:39;;;;;;;4.40;0.50;;;;;;;;;;5032564;28;20405;-80
2023/05/03 09:00:09;;;;;;;2.30;0.60;;;;;;;;;;5032664;28;20409;-86
2023/05/03 09:02:37;;;;;;;2.30;0.30;;;;;;;;;;5032762;28;20406;-86
2023/05/03 09:05:25;;;;;;;1.00;0.40;;;;;;;;;;5032750;28;20509;-84
2023/05/03 09:08:02;;;;;;;5.70;0.60;;;;;;;;;;5032122;28;20468;-84
2023/05/03 09:10:29;;;;;;;2.10;0.20;;;;;;;;;;5032330;28;20417;-83
2023/05/03 09:13:00;;;;;;;2.10;0.47;;;;;;;;;;5032398;28;20401;-83
2023/05/03 09:15:28;;;;;;;2.67;0.67;;;;;;;;;;5032411;28;20752;-82
2023/05/03 09:18:14;;;;;;;0.80;0.43;;;;;;;;;;5032428;28;20410;-83
2023/05/03 09:20:41;;;;;;;3.20;1.57;;;;;;;;;;5032279;28;20811;-84
2023/05/03 09:23:07;;;;;;;2.00;0.67;;;;;;;;;;5032333;28;20412;-84
2023/05/03 09:25:44;;;;;;;3.60;0.83;;;;;;;;;;5014424;28;20462;-85
2023/05/03 09:28:10;;;;;;;2.83;1.37;;;;;;;;;;5014496;28;20470;-84
2023/05/03 09:30:36;;;;;;;2.67;0.73;;;;;;;;;;5032369;28;20415;-86
2023/05/03 09:33:03;;;;;;;2.63;0.40;;;;;;;;;;5031943;28;20192;-85
2023/05/03 09:35:29;;;;;;;1.97;0.50;;;;;;;;;;5034631;28;20415;-83
2023/05/03 09:37:55;;;;;;;5.80;0.67;;;;;;;;;;5035693;28;20412;-82
2023/05/03 09:40:20;;;;;;;1.70;0.80;;;;;;;;;;5035791;28;20419;-82
2023/05/03 09:43:08;;;;;;;4.20;1.23;;;;;;;;;;5035659;28;20412;-82
2023/05/03 09:45:37;;;;;;;1.13;0.60;;;;;;;;;;5035676;28;20247;-82
2023/05/03 09:48:04;;;;;;;2.63;0.60;;;;;;;;;;5035167;28;20455;-82
2023/05/03 09:50:32;;;;;;;1.83;0.47;;;;;;;;;;5035578;28;20990;-82
2023/05/03 09:53:01;;;;;;;2.30;0.30;;;;;;;;;;5035527;28;20409;-83
2023/05/03 09:55:27;;;;;;;3.83;0.63;;;;;;;;;;5035488;28;20823;-80
2023/05/03 09:57:54;;;;;;;6.43;1.20;;;;;;;;;;5017750;28;20426;-82
2023/05/03 10:00:20;;;;;;;4.03;0.50;;;;;;;;;;5035278;28;20429;-83
2023/05/03 10:02:49;;;;;;;2.10;0.60;;;;;;;;;;5035353;28;20425;-83
2023/05/03 10:05:19;;;;;;;1.53;0.57;;;;;;;;;;5034937;28;20412;-83
2023/05/03 10:07:46;;;;;;;1.90;0.97;;;;;;;;;;5035113;28;20473;-82
2023/05/03 10:10:12;;;;;;;1.60;0.40;;;;;;;;;;5035186;28;20419;-83
2023/05/03 10:12:38;;;;;;;2.07;0.70;;;;;;;;;;5035191;28;20424;-84
2023/05/03 10:15:06;;;;;;;0.97;0.40;;;;;;;;;;5035196;28;20170;-83
2023/05/03 10:17:34;;;;;;;2.73;0.30;;;;;;;;;;5035027;28;20421;-84
2023/05/03 10:20:00;;;;;;;1.93;0.80;;;;;;;;;;5034620;28;20409;-83
2023/05/03 10:22:26;;;;;;;1.90;0.47;;;;;;;;;;5034904;28;20941;-84
2023/05/03 10:25:01;;;;;;;4.00;0.40;;;;;;;;;;5017071;28;20232;-82
2023/05/03 10:27:50;;;;;;;3.73;0.60;;;;;;;;;;5017116;28;20933;-83
2023/05/03 10:30:25;;;;;;;1.43;0.60;;;;;;;;;;5034826;28;20778;-83
2023/05/03 10:32:51;;;;;;;2.30;0.63;;;;;;;;;;5034420;28;20984;-83
2023/05/03 10:35:18;;;;;;;7.67;0.73;;;;;;;;;;5034743;28;20827;-83
2023/05/03 10:37:44;;;;;;;2.10;0.50;;;;;;;;;;5034695;28;20409;-84
2023/05/03 10:40:21;;;;;;;1.90;0.60;;;;;;;;;;5016886;28;20520;-83
2023/05/03 10:42:55;;;;;;;4.23;0.40;;;;;;;;;;5034625;28;20844;-81
2023/05/03 10:45:23;;;;;;;2.00;0.50;;;;;;;;;;5034488;28;20746;-82
2023/05/03 10:48:08;;;;;;;1.83;0.57;;;;;;;;;;5015729;28;20436;-82
2023/05/03 10:50:33;;;;;;;1.53;0.30;;;;;;;;;;5034302;28;21388;-83
2023/05/03 10:52:59;;;;;;;2.40;0.50;;;;;;;;;;5016621;28;20419;-84
2023/05/03 10:55:25;;;;;;;2.07;0.70;;;;;;;;;;5034250;28;20181;-84
2023/05/03 10:57:53;;;;;;;1.23;0.50;;;;;;;;;;5034106;28;20694;-83
2023/05/03 11:00:24;;;;;;;2.00;0.87;;;;;;;;;;5034284;28;20800;-82
2023/05/03 11:02:50;;;;;;;2.83;0.50;;;;;;;;;;5033824;28;20408;-83
2023/05/03 11:05:17;;;;;;;7.67;1.33;;;;;;;;;;4997674;28;20437;-78
2023/05/03 11:07:43;;;;;;;2.83;0.60;;;;;;;;;;5029011;28;20182;-81
2023/05/03 11:10:18;;;;;;;3.67;0.60;;;;;;;;;;5016030;28;20979;-83
2023/05/03 11:12:45;;;;;;;1.20;0.50;;;;;;;;;;5033975;28;20193;-84
2023/05/03 11:15:11;;;;;;;1.80;0.70;;;;;;;;;;5034035;28;20446;-80
2023/05/03 11:17:38;;;;;;;2.87;1.07;;;;;;;;;;5033810;28;20431;-80
2023/05/03 11:20:10;;;;;;;3.77;1.60;;;;;;;;;;5033516;28;20728;-82
2023/05/03 11:22:36;;;;;;;1.93;0.50;;;;;;;;;;5033800;28;20453;-81
2023/05/03 11:25:02;;;;;;;1.27;0.90;;;;;;;;;;5033561;28;20456;-81
2023/05/03 11:27:28;;;;;;;2.30;0.47;;;;;;;;;;5033770;28;20420;-81
2023/05/03 11:29:57;;;;;;;3.97;1.13;;;;;;;;;;5033531;28;20555;-81
2023/05/03 11:32:25;;;;;;;1.53;0.90;;;;;;;;;;5033558;28;20262;-82
2023/05/03 11:34:51;;;;;;;4.07;0.67;;;;;;;;;;5033231;28;20412;-82
2023/05/03 11:37:17;;;;;;;2.50;1.00;;;;;;;;;;5033534;28;20409;-84
2023/05/03 11:39:43;;;;;;;1.83;0.70;;;;;;;;;;5033593;28;20170;-81
2023/05/03 11:42:09;;;;;;;1.27;0.57;;;;;;;;;;5033354;28;20424;-79
2023/05/03 11:44:38;;;;;;;1.13;0.50;;;;;;;;;;5033433;28;20174;-80
2023/05/03 11:47:04;;;;;;;4.13;0.60;;;;;;;;;;5033268;28;20184;-80
2023/05/03 11:49:30;;;;;;;1.80;0.70;;;;;;;;;;5032895;28;20484;-79
2023/05/03 11:51:56;;;;;;;3.03;0.70;;;;;;;;;;5033295;28;20772;-81
2023/05/03 11:54:23;;;;;;;1.63;0.30;;;;;;;;;;5033236;28;20627;-80
2023/05/03 11:56:49;;;;;;;4.40;1.00;;;;;;;;;;5040925;28;20405;-81
2023/05/03 11:59:16;;;;;;;1.97;0.67;;;;;;;;;;5033884;28;20467;-80
2023/05/03 12:01:42;;;;;;;2.30;0.90;;;;;;;;;;5033127;28;20413;-81
2023/05/03 12:04:08;;;;;;;3.93;1.07;;;;;;;;;;5021301;28;20894;-79
2023/05/03 12:06:34;;;;;;;1.00;0.67;;;;;;;;;;5000264;28;20432;-77
2023/05/03 12:09:02;;;;;;;2.60;0.97;;;;;;;;;;5025904;28;20472;-76
2023/05/03 12:11:27;;;;;;;4.03;1.17;;;;;;;;;;5041139;28;20978;-79
2023/05/03 12:13:57;;;;;;;2.40;0.50;;;;;;;;;;5034527;28;20465;-81
2023/05/03 12:16:23;;;;;;;1.60;0.63;;;;;;;;;;5034808;28;20174;-80
2023/05/03 12:18:50;;;;;;;3.27;0.97;;;;;;;;;;5034199;28;20463;-80
2023/05/03 12:21:17;;;;;;;1.80;0.60;;;;;;;;;;5036189;28;20209;-76
2023/05/03 12:23:43;;;;;;;1.00;0.43;;;;;;;;;;5041517;28;20408;-79
2023/05/03 12:26:09;;;;;;;5.53;0.87;;;;;;;;;;5042999;28;20487;-79
2023/05/03 12:28:35;;;;;;;1.90;0.93;;;;;;;;;;5041905;28;20515;-78
2023/05/03 12:31:11;;;;;;;4.20;0.83;;;;;;;;;;5011073;28;20174;-87
2023/05/03 12:33:37;;;;;;;4.30;0.70;;;;;;;;;;5017752;28;20455;-84
2023/05/03 12:36:03;;;;;;;1.80;0.87;;;;;;;;;;5032283;28;20409;-83
2023/05/03 12:38:28;;;;;;;2.10;0.60;;;;;;;;;;5032257;28;20174;-82
2023/05/03 12:40:54;;;;;;;2.50;0.73;;;;;;;;;;5032374;28;20435;-84
2023/05/03 12:43:20;;;;;;;2.60;1.00;;;;;;;;;;5032417;28;20178;-85
2023/05/03 12:45:46;;;;;;;1.40;0.60;;;;;;;;;;5032739;28;20174;-84
2023/05/03 12:48:12;;;;;;;1.50;0.70;;;;;;;;;;5015596;28;20614;-87
2023/05/03 12:50:38;;;;;;;2.53;1.13;;;;;;;;;;5015533;28;20538;-88
2023/05/03 12:53:04;;;;;;;2.47;0.90;;;;;;;;;;5032760;28;20170;-89
2023/05/03 12:55:36;;;;;;;2.77;0.83;;;;;;;;;;5015217;28;20440;-82
2023/05/03 12:58:03;;;;;;;3.20;1.13;;;;;;;;;;5034214;28;20262;-85
2023/05/03 13:00:30;;;;;;;1.93;1.03;;;;;;;;;;5034920;28;20409;-87
2023/05/03 13:02:56;;;;;;;3.27;1.30;;;;;;;;;;5014826;28;20413;-87
2023/05/03 13:05:22;;;;;;;3.03;0.80;;;;;;;;;;5032662;28;20470;-85
2023/05/03 13:07:48;;;;;;;1.53;0.80;;;;;;;;;;4992013;28;20960;-88
2023/05/03 13:10:15;;;;;;;3.17;1.00;;;;;;;;;;5034780;28;20758;-89
2023/05/03 13:12:41;;;;;;;2.20;1.13;;;;;;;;;;5036515;28;20523;-89
2023/05/03 13:15:07;;;;;;;4.17;2.23;;;;;;;;;;5036713;28;20981;-86
2023/05/03 13:17:33;;;;;;;2.77;1.20;;;;;;;;;;5036223;28;20569;-80
2023/05/03 13:20:00;;;;;;;4.17;1.63;;;;;;;;;;5036973;28;20432;-84
2023/05/03 13:22:26;;;;;;;2.43;1.40;;;;;;;;;;5036550;28;20173;-83
2023/05/03 13:24:52;;;;;;;1.37;0.90;;;;;;;;;;5035977;28;20492;-85
2023/05/03 13:27:18;;;;;;;2.23;1.20;;;;;;;;;;5036037;28;20405;-85
2023/05/03 13:29:44;;;;;;;1.60;1.13;;;;;;;;;;5033767;28;20476;-87
2023/05/03 13:32:11;;;;;;;6.80;1.93;;;;;;;;;;5018147;28;20175;-87
2023/05/03 13:34:37;;;;;;;4.67;1.20;;;;;;;;;;5017024;28;20935;-86
2023/05/03 13:37:03;;;;;;;4.10;1.73;;;;;;;;;;5035131;28;20500;-85
2023/05/03 13:39:30;;;;;;;1.60;1.03;;;;;;;;;;5034805;28;20231;-84
2023/05/03 13:41:55;;;;;;;3.20;1.50;;;;;;;;;;5034587;28;20405;-87
2023/05/03 13:44:24;;;;;;;1.97;0.83;;;;;;;;;;5034718;28;20500;-83
2023/05/03 13:46:51;;;;;;;3.67;1.53;;;;;;;;;;5034589;28;20228;-84
2023/05/03 13:49:17;;;;;;;3.33;1.37;;;;;;;;;;5034762;28;21638;-86
2023/05/03 13:51:42;;;;;;;4.03;1.10;;;;;;;;;;5034555;28;20410;-85
2023/05/03 13:54:08;;;;;;;2.03;1.50;;;;;;;;;;5017171;28;20191;-86
2023/05/03 13:56:39;;;;;;;2.50;1.07;;;;;;;;;;5034957;28;20415;-83
2023/05/03 13:59:07;;;;;;;4.13;1.13;;;;;;;;;;5034451;28;20445;-87
2023/05/03 14:01:34;;;;;;;1.23;0.93;;;;;;;;;;5034445;28;20415;-83
2023/05/03 14:04:00;;;;;;;2.70;1.10;;;;;;;;;;5033976;28;20425;-82
2023/05/03 14:06:27;;;;;;;2.33;1.23;;;;;;;;;;5034264;28;20408;-83
2023/05/03 14:08:53;;;;;;;5.33;1.37;;;;;;;;;;5034250;28;20210;-87
2023/05/03 14:11:20;;;;;;;3.50;1.20;;;;;;;;;;5034425;28;20407;-83
2023/05/03 14:13:46;;;;;;;2.30;1.10;;;;;;;;;;5034397;28;20429;-84
2023/05/03 14:16:19;;;;;;;1.70;1.03;;;;;;;;;;5033997;28;20413;-85
2023/05/03 14:18:46;;;;;;;2.33;0.93;;;;;;;;;;5033886;28;20412;-83
2023/05/03 14:21:12;;;;;;;2.37;0.80;;;;;;;;;;5015351;28;20898;-84
2023/05/03 14:23:39;;;;;;;2.17;1.17;;;;;;;;;;5015720;28;20527;-85
2023/05/03 14:26:08;;;;;;;3.73;1.13;;;;;;;;;;5020197;28;20476;-87
2023/05/03 14:28:35;;;;;;;1.53;0.90;;;;;;;;;;5054366;28;20462;-87
2023/05/03 14:31:01;;;;;;;2.73;1.30;;;;;;;;;;5036722;28;20516;-87
2023/05/03 14:33:27;;;;;;;3.60;1.57;;;;;;;;;;5054308;28;20418;-85
2023/05/03 14:35:53;;;;;;;2.53;1.30;;;;;;;;;;5054527;28;20416;-85
2023/05/03 14:38:19;;;;;;;5.83;1.50;;;;;;;;;;5038083;28;20424;-85
2023/05/03 14:40:45;;;;;;;2.40;1.10;;;;;;;;;;5016843;28;20431;-85
2023/05/03 14:43:11;;;;;;;1.93;1.20;;;;;;;;;;5034598;28;20459;-85
2023/05/03 14:45:36;;;;;;;2.57;1.73;;;;;;;;;;5034472;28;20913;-85
2023/05/03 14:48:02;;;;;;;1.70;1.17;;;;;;;;;;5016367;28;20208;-84
2023/05/03 14:50:29;;;;;;;2.20;1.13;;;;;;;;;;5034439;28;20423;-85
2023/05/03 14:52:55;;;;;;;4.70;1.37;;;;;;;;;;5034381;28;20753;-85
2023/05/03 14:55:21;;;;;;;1.20;0.80;;;;;;;;;;5034216;28;20511;-85
2023/05/03 14:57:47;;;;;;;2.63;1.50;;;;;;;;;;5016499;28;20509;-85
2023/05/03 15:00:13;;;;;;;1.43;1.23;;;;;;;;;;5034201;28;20310;-85
2023/05/03 15:02:40;;;;;;;2.30;1.83;;;;;;;;;;5033576;28;20832;-85
2023/05/03 15:05:06;;;;;;;7.27;2.93;;;;;;;;;;5026455;28;20493;-86
2023/05/03 15:07:33;;;;;;;5.00;1.57;;;;;;;;;;5017951;28;20476;-86
2023/05/03 15:10:02;;;;;;;2.53;1.30;;;;;;;;;;4997151;28;20485;-86
2023/05/03 15:12:29;;;;;;;2.90;1.27;;;;;;;;;;5014249;28;20402;-83
2023/05/03 15:14:55;;;;;;;1.20;0.87;;;;;;;;;;4996691;28;20921;-86
2023/05/03 15:17:21;;;;;;;2.87;1.00;;;;;;;;;;5036219;28;20516;-84
2023/05/03 15:19:47;;;;;;;1.93;1.60;;;;;;;;;;5043020;28;20419;-83
2023/05/03 15:22:13;;;;;;;2.70;1.10;;;;;;;;;;5024612;28;20415;-84
2023/05/03 15:24:40;;;;;;;3.03;1.30;;;;;;;;;;5026320;28;20651;-87
2023/05/03 15:27:06;;;;;;;3.33;1.33;;;;;;;;;;5025226;28;20412;-85
2023/05/03 15:29:33;;;;;;;2.47;1.73;;;;;;;;;;5042284;28;20579;-86
2023/05/03 15:32:00;;;;;;;3.10;1.43;;;;;;;;;;5044447;28;20402;-86
2023/05/03 15:34:26;;;;;;;2.20;1.00;;;;;;;;;;5024657;28;20574;-85
2023/05/03 15:36:52;;;;;;;2.13;1.30;;;;;;;;;;5043785;28;20497;-87
2023/05/03 15:39:18;;;;;;;5.43;1.27;;;;;;;;;;5026528;28;20998;-86
2023/05/03 15:41:44;;;;;;;2.87;1.00;;;;;;;;;;5025014;28;20773;-86
2023/05/03 15:44:13;;;;;;;6.33;1.60;;;;;;;;;;5042716;28;20423;-86
2023/05/03 15:46:39;;;;;;;2.20;1.67;;;;;;;;;;5024143;28;20478;-87
2023/05/03 15:49:05;;;;;;;2.07;1.23;;;;;;;;;;5042425;28;20868;-86
2023/05/03 15:51:31;;;;;;;3.50;1.83;;;;;;;;;;5025713;28;20509;-86
2023/05/03 15:53:57;;;;;;;1.60;1.07;;;;;;;;;;5041725;28;20431;-87
2023/05/03 15:56:26;;;;;;;4.07;1.87;;;;;;;;;;5043466;28;20414;-88
2023/05/03 15:58:52;;;;;;;3.13;0.93;;;;;;;;;;5025949;28;20988;-87
2023/05/03 16:01:18;;;;;;;4.90;1.70;;;;;;;;;;5041349;28;20510;-85
2023/05/03 16:03:45;;;;;;;1.97;1.00;;;;;;;;;;5024845;28;20434;-85
2023/05/03 16:06:10;;;;;;;2.03;1.40;;;;;;;;;;5043185;28;20539;-85
2023/05/03 16:08:36;;;;;;;2.17;1.37;;;;;;;;;;5042111;28;20966;-85
2023/05/03 16:11:02;;;;;;;3.20;1.27;;;;;;;;;;5041965;28;20565;-86
2023/05/03 16:13:29;;;;;;;3.27;1.10;;;;;;;;;;5042374;28;20416;-86
2023/05/03 16:15:55;;;;;;;1.60;1.37;;;;;;;;;;5043106;28;20435;-86
2023/05/03 16:18:21;;;;;;;1.87;1.20;;;;;;;;;;5041513;28;20427;-86
2023/05/03 16:20:48;;;;;;;2.20;1.23;;;;;;;;;;5024802;28;20422;-84
2023/05/03 16:23:14;;;;;;;3.67;1.97;;;;;;;;;;5043174;28;20411;-85
2023/05/03 16:25:40;;;;;;;1.97;1.33;;;;;;;;;;5038546;28;20529;-85
2023/05/03 16:28:06;;;;;;;6.93;1.27;;;;;;;;;;5042456;28;20458;-85
2023/05/03 16:30:32;;;;;;;2.60;1.47;;;;;;;;;;5042603;28;20435;-85
2023/05/03 16:32:58;;;;;;;1.60;1.50;;;;;;;;;;5040899;28;20442;-86
2023/05/03 16:35:24;;;;;;;4.03;1.80;;;;;;;;;;5042503;28;20450;-85
2023/05/03 16:37:54;;;;;;;3.70;1.43;;;;;;;;;;5042623;28;20771;-85
2023/05/03 16:40:20;;;;;;;5.67;1.43;;;;;;;;;;5038386;28;20843;-86
2023/05/03 16:42:49;;;;;;;1.90;0.70;;;;;;;;;;5024467;28;20423;-85
2023/05/03 16:45:15;;;;;;;3.93;1.50;;;;;;;;;;5027096;28;20427;-85
2023/05/03 16:47:41;;;;;;;4.10;1.10;;;;;;;;;;5045190;28;20414;-86
2023/05/03 16:50:08;;;;;;;1.80;1.17;;;;;;;;;;5045916;28;20481;-85
2023/05/03 16:52:38;;;;;;;3.70;0.83;;;;;;;;;;5047089;28;20415;-85
2023/05/03 16:55:06;;;;;;;3.50;1.37;;;;;;;;;;5043626;28;20472;-85
2023/05/03 16:57:32;;;;;;;3.30;0.63;;;;;;;;;;5045437;28;20504;-86
2023/05/03 16:59:59;;;;;;;3.30;1.47;;;;;;;;;;5035878;28;20938;-87
2023/05/03 17:02:26;;;;;;;1.53;0.57;;;;;;;;;;5035412;28;20268;-86
2023/05/03 17:04:52;;;;;;;2.60;0.87;;;;;;;;;;5036365;28;20498;-86
2023/05/03 17:07:18;;;;;;;3.43;1.30;;;;;;;;;;5036501;28;20502;-86
2023/05/03 17:09:43;;;;;;;2.13;0.80;;;;;;;;;;5036439;28;20480;-87
2023/05/03 17:12:09;;;;;;;3.73;1.33;;;;;;;;;;5036367;28;20409;-87
2023/05/03 17:14:35;;;;;;;2.80;1.10;;;;;;;;;;5036139;28;20424;-86
2023/05/03 17:17:02;;;;;;;3.13;0.97;;;;;;;;;;5018202;28;20566;-86
2023/05/03 17:19:28;;;;;;;4.23;1.30;;;;;;;;;;5036359;28;20172;-84
2023/05/03 17:21:54;;;;;;;3.00;1.17;;;;;;;;;;5036262;28;20907;-86
2023/05/03 17:24:20;;;;;;;3.00;1.20;;;;;;;;;;5018306;28;20481;-86
2023/05/03 17:26:46;;;;;;;1.97;1.07;;;;;;;;;;5036141;28;20418;-86
2023/05/03 17:29:12;;;;;;;1.73;0.97;;;;;;;;;;5039790;28;20211;-85
2023/05/03 17:31:38;;;;;;;4.80;2.07;;;;;;;;;;5044250;28;20415;-85
2023/05/03 17:34:04;;;;;;;2.93;1.63;;;;;;;;;;5023931;28;20192;-84
2023/05/03 17:36:29;;;;;;;2.20;1.27;;;;;;;;;;5045667;28;20414;-84
2023/05/03 17:38:56;;;;;;;3.33;1.17;;;;;;;;;;5000888;28;20439;-84
2023/05/03 17:41:22;;;;;;;3.53;1.07;;;;;;;;;;5045689;28;20191;-86
2023/05/03 17:43:48;;;;;;;4.03;1.70;;;;;;;;;;5042165;28;20905;-87
2023/05/03 17:46:14;;;;;;;3.03;1.40;;;;;;;;;;5042518;28;20629;-85
2023/05/03 17:48:45;;;;;;;3.70;0.93;;;;;;;;;;5045498;28;20565;-86
2023/05/03 17:51:12;;;;;;;4.23;1.20;;;;;;;;;;5041668;28;20175;-85
2023/05/03 17:53:38;;;;;;;2.03;1.10;;;;;;;;;;5035205;28;20548;-87
2023/05/03 17:56:04;;;;;;;1.90;0.80;;;;;;;;;;5034940;28;20485;-87
2023/05/03 17:58:30;;;;;;;2.00;0.63;;;;;;;;;;5034299;28;20406;-87
2023/05/03 18:00:56;;;;;;;2.10;0.87;;;;;;;;;;5035069;28;20415;-86
2023/05/03 18:03:22;;;;;;;2.27;1.00;;;;;;;;;;5034412;28;20473;-88
2023/05/03 18:05:48;;;;;;;1.80;0.80;;;;;;;;;;5034692;28;20402;-87
2023/05/03 18:08:14;;;;;;;3.13;1.17;;;;;;;;;;5042632;28;20467;-85
2023/05/03 18:10:41;;;;;;;2.27;1.10;;;;;;;;;;5054405;28;20527;-86
2023/05/03 18:13:08;;;;;;;2.40;1.47;;;;;;;;;;5036025;28;20424;-86
2023/05/03 18:15:35;;;;;;;3.73;0.93;;;;;;;;;;5054812;28;20847;-85
2023/05/03 18:18:01;;;;;;;2.20;0.93;;;;;;;;;;5018520;28;20894;-86
2023/05/03 18:20:27;;;;;;;2.70;0.90;;;;;;;;;;5014733;28;20475;-84
2023/05/03 18:22:53;;;;;;;3.67;0.70;;;;;;;;;;5014689;28;20425;-85
2023/05/03 18:25:19;;;;;;;1.87;0.83;;;;;;;;;;5014726;28;20296;-85
2023/05/03 18:27:45;;;;;;;2.30;0.90;;;;;;;;;;5014607;28;20513;-85
2023/05/03 18:30:11;;;;;;;2.77;0.83;;;;;;;;;;5014988;28;20505;-85
2023/05/03 18:32:37;;;;;;;5.43;1.77;;;;;;;;;;5031024;28;20521;-85
2023/05/03 18:35:03;;;;;;;3.43;1.37;;;;;;;;;;5034403;28;20484;-85
2023/05/03 18:37:29;;;;;;;2.70;0.90;;;;;;;;;;5034129;28;20428;-85
2023/05/03 18:39:55;;;;;;;1.60;1.30;;;;;;;;;;5035178;28;20405;-86
2023/05/03 18:42:21;;;;;;;1.83;1.07;;;;;;;;;;5034987;28;20422;-86
2023/05/03 18:44:47;;;;;;;2.43;1.33;;;;;;;;;;5017457;28;20454;-85
2023/05/03 18:47:15;;;;;;;7.37;1.47;;;;;;;;;;5034220;28;20476;-86
2023/05/03 18:49:44;;;;;;;1.90;1.03;;;;;;;;;;4994767;28;20489;-84
2023/05/03 18:52:10;;;;;;;2.67;1.20;;;;;;;;;;5054444;28;20410;-86
2023/05/03 18:54:36;;;;;;;5.17;0.73;;;;;;;;;;5036567;28;20805;-86
2023/05/03 18:57:02;;;;;;;1.30;0.73;;;;;;;;;;5053604;28;20431;-84
2023/05/03 18:59:28;;;;;;;2.90;1.10;;;;;;;;;;5053915;28;20584;-84
2023/05/03 19:01:54;;;;;;;2.53;1.03;;;;;;;;;;5054109;28;20416;-84
2023/05/03 19:04:20;;;;;;;3.20;1.30;;;;;;;;;;5053650;28;20410;-85
2023/05/03 19:06:46;;;;;;;1.90;0.77;;;;;;;;;;5041451;28;20911;-85
2023/05/03 19:09:12;;;;;;;3.80;1.10;;;;;;;;;;5034528;28;20497;-84
2023/05/03 19:11:41;;;;;;;3.23;1.00;;;;;;;;;;5019389;28;20438;-84
2023/05/03 19:14:08;;;;;;;2.00;1.90;;;;;;;;;;5014806;28;20419;-84
2023/05/03 19:16:34;;;;;;;2.13;0.90;;;;;;;;;;5020902;28;20491;-86
2023/05/03 19:19:00;;;;;;;4.30;1.20;;;;;;;;;;5033204;28;20452;-86
2023/05/03 19:21:26;;;;;;;2.47;1.30;;;;;;;;;;5033300;28;20516;-84
2023/05/03 19:23:52;;;;;;;2.37;1.00;;;;;;;;;;5033422;28;20460;-85
2023/05/03 19:26:18;;;;;;;5.13;1.67;;;;;;;;;;5033423;28;20517;-84
2023/05/03 19:28:44;;;;;;;5.33;1.13;;;;;;;;;;5035080;28;20494;-85
2023/05/03 19:31:10;;;;;;;4.70;1.57;;;;;;;;;;5014231;28;20442;-85
2023/05/03 19:33:36;;;;;;;2.00;1.63;;;;;;;;;;5015170;28;20512;-84
2023/05/03 19:36:05;;;;;;;3.00;1.60;;;;;;;;;;5033167;28;20440;-85
2023/05/03 19:38:31;;;;;;;4.93;1.50;;;;;;;;;;5033488;28;20483;-85
2023/05/03 19:40:58;;;;;;;2.67;2.00;;;;;;;;;;5036602;28;20418;-86
2023/05/03 19:43:24;;;;;;;2.93;1.33;;;;;;;;;;5036930;28;20433;-86
2023/05/03 19:45:50;;;;;;;5.30;1.53;;;;;;;;;;5054057;28;20929;-85
2023/05/03 19:48:16;;;;;;;6.77;2.23;;;;;;;;;;5035907;28;20574;-85
2023/05/03 19:50:42;;;;;;;2.30;1.40;;;;;;;;;;4964405;28;20458;-85
2023/05/03 19:53:08;;;;;;;3.53;1.57;;;;;;;;;;5002243;28;20408;-85
2023/05/03 19:55:34;;;;;;;4.63;2.47;;;;;;;;;;5041312;28;20425;-84
2023/05/03 19:58:00;;;;;;;1.73;1.40;;;;;;;;;;5036291;28;20432;-85
2023/05/03 20:00:27;;;;;;;5.30;1.93;;;;;;;;;;5013210;28;20420;-85
2023/05/03 20:02:53;;;;;;;2.37;1.87;;;;;;;;;;4995240;28;20873;-84
2023/05/03 20:05:19;;;;;;;3.13;1.47;;;;;;;;;;4996148;28;20423;-85
2023/05/03 20:07:46;;;;;;;4.23;2.20;;;;;;;;;;5013560;28;21027;-85
2023/05/03 20:10:12;;;;;;;4.53;2.33;;;;;;;;;;4995892;28;20579;-84
2023/05/03 20:12:42;;;;;;;6.67;3.10;;;;;;;;;;5013416;28;20493;-84
2023/05/03 20:15:08;;;;;;;6.53;1.93;;;;;;;;;;5014414;28;20953;-86
2023/05/03 20:17:34;;;;;;;1.67;1.40;;;;;;;;;;5013142;28;20409;-84
2023/05/03 20:20:10;;;;;;;3.77;1.97;;;;;;;;;;5021065;28;20418;-86
2023/05/03 20:22:36;;;;;;;5.37;2.00;;;;;;;;;;5012879;28;20417;-84
2023/05/03 20:25:02;;;;;;;3.63;1.40;;;;;;;;;;5012570;28;20464;-84
2023/05/03 20:27:28;;;;;;;4.83;1.80;;;;;;;;;;4994254;28;20804;-84
2023/05/03 20:29:54;;;;;;;6.70;2.60;;;;;;;;;;4995007;28;20486;-85
2023/05/03 20:32:20;;;;;;;5.07;1.60;;;;;;;;;;4994546;28;20432;-84
2023/05/03 20:34:46;;;;;;;4.93;2.60;;;;;;;;;;5012881;28;20479;-84
2023/05/03 20:37:12;;;;;;;4.40;1.90;;;;;;;;;;4995137;28;20417;-86
2023/05/03 20:39:38;;;;;;;5.07;1.63;;;;;;;;;;4995642;28;20435;-86
2023/05/03 20:42:04;;;;;;;2.13;1.70;;;;;;;;;;5012788;28;20780;-84
2023/05/03 20:44:31;;;;;;;4.40;1.60;;;;;;;;;;4995327;28;20422;-85
2023/05/03 20:46:57;;;;;;;3.23;1.77;;;;;;;;;;5012561;28;20424;-85
2023/05/03 20:49:26;;;;;;;2.03;1.60;;;;;;;;;;5013152;28;20471;-87
2023/05/03 20:51:52;;;;;;;4.00;2.77;;;;;;;;;;4978737;28;20937;-85
2023/05/03 20:54:18;;;;;;;3.07;2.10;;;;;;;;;;5010490;28;20432;-86
2023/05/03 20:56:44;;;;;;;6.30;2.00;;;;;;;;;;5012015;28;20803;-83
2023/05/03 20:59:10;;;;;;;3.83;2.30;;;;;;;;;;5012307;28;21773;-85
2023/05/03 21:01:39;;;;;;;4.47;2.30;;;;;;;;;;5012651;28;20417;-84
2023/05/03 21:04:06;;;;;;;4.23;1.73;;;;;;;;;;5004717;28;20443;-84